sensor_id;sensor_type;location;lat;lon;timestamp;P1;durP1;ratioP1;P2;durP2;ratioP2
10565;SDS011;5331;48.148;16.326;2023-04-06T00:00:33;5.63;;;5.03;;
10565;SDS011;5331;48.148;16.326;2023-04-06T00:03:00;6.50;;;5.17;;
10565;SDS011;5331;48.148;16.326;2023-04-06T00:05:27;9.13;;;5.33;;
10565;SDS011;5331;48.148;16.326;2023-04-06T00:07:55;6.70;;;5.33;;
10565;SDS011;5331;48.148;16.326;2023-04-06T00:10:23;7.60;;;5.23;;
10565;SDS011;5331;48.148;16.326;2023-04-06T00:12:51;5.40;;;4.90;;
10565;SDS011;5331;48.148;16.326;2023-04-06T00:15:18;5.20;;;4.70;;
10565;SDS011;5331;48.148;16.326;2023-04-06T00:17:45;7.43;;;5.10;;
10565;SDS011;5331;48.148;16.326;2023-04-06T00:20:12;7.13;;;5.10;;
10565;SDS011;5331;48.148;16.326;2023-04-06T00:22:39;6.60;;;5.33;;
10565;SDS011;5331;48.148;16.326;2023-04-06T00:25:06;4.90;;;4.50;;
10565;SDS011;5331;48.148;16.326;2023-04-06T00:27:35;5.30;;;4.90;;
10565;SDS011;5331;48.148;16.326;2023-04-06T00:30:03;5.43;;;4.83;;
10565;SDS011;5331;48.148;16.326;2023-04-06T00:32:31;5.97;;;5.00;;
10565;SDS011;5331;48.148;16.326;2023-04-06T00:34:58;5.63;;;5.10;;
10565;SDS011;5331;48.148;16.326;2023-04-06T00:37:25;7.20;;;4.83;;
10565;SDS011;5331;48.148;16.326;2023-04-06T00:39:52;6.30;;;5.40;;
10565;SDS011;5331;48.148;16.326;2023-04-06T00:42:18;6.07;;;5.10;;
10565;SDS011;5331;48.148;16.326;2023-04-06T00:44:50;5.47;;;4.97;;
10565;SDS011;5331;48.148;16.326;2023-04-06T00:47:19;5.53;;;5.00;;
10565;SDS011;5331;48.148;16.326;2023-04-06T00:49:46;5.80;;;5.20;;
10565;SDS011;5331;48.148;16.326;2023-04-06T00:52:14;6.77;;;4.80;;
10565;SDS011;5331;48.148;16.326;2023-04-06T00:54:41;5.70;;;4.83;;
10565;SDS011;5331;48.148;16.326;2023-04-06T00:57:08;6.83;;;5.33;;
10565;SDS011;5331;48.148;16.326;2023-04-06T00:59:36;5.30;;;4.80;;
10565;SDS011;5331;48.148;16.326;2023-04-06T01:02:03;5.80;;;4.90;;
10565;SDS011;5331;48.148;16.326;2023-04-06T01:04:31;5.20;;;4.80;;
10565;SDS011;5331;48.148;16.326;2023-04-06T01:06:59;6.27;;;5.40;;
10565;SDS011;5331;48.148;16.326;2023-04-06T01:09:27;5.30;;;4.80;;
10565;SDS011;5331;48.148;16.326;2023-04-06T01:11:53;5.07;;;4.67;;
10565;SDS011;5331;48.148;16.326;2023-04-06T01:14:21;5.60;;;5.00;;
10565;SDS011;5331;48.148;16.326;2023-04-06T01:16:48;5.63;;;4.60;;
10565;SDS011;5331;48.148;16.326;2023-04-06T01:19:15;5.37;;;4.90;;
10565;SDS011;5331;48.148;16.326;2023-04-06T01:21:43;5.13;;;4.70;;
10565;SDS011;5331;48.148;16.326;2023-04-06T01:24:12;5.00;;;4.50;;
10565;SDS011;5331;48.148;16.326;2023-04-06T01:26:39;5.00;;;4.60;;
10565;SDS011;5331;48.148;16.326;2023-04-06T01:29:06;5.80;;;4.87;;
10565;SDS011;5331;48.148;16.326;2023-04-06T01:31:33;5.10;;;4.60;;
10565;SDS011;5331;48.148;16.326;2023-04-06T01:34:00;4.93;;;4.43;;
10565;SDS011;5331;48.148;16.326;2023-04-06T01:36:27;5.40;;;4.90;;
10565;SDS011;5331;48.148;16.326;2023-04-06T01:38:54;4.77;;;4.33;;
10565;SDS011;5331;48.148;16.326;2023-04-06T01:41:22;5.47;;;4.93;;
10565;SDS011;5331;48.148;16.326;2023-04-06T01:43:49;5.50;;;4.73;;
10565;SDS011;5331;48.148;16.326;2023-04-06T01:46:19;5.07;;;4.57;;
10565;SDS011;5331;48.148;16.326;2023-04-06T01:48:46;5.60;;;5.10;;
10565;SDS011;5331;48.148;16.326;2023-04-06T01:51:13;5.93;;;4.77;;
10565;SDS011;5331;48.148;16.326;2023-04-06T01:53:40;5.73;;;5.00;;
10565;SDS011;5331;48.148;16.326;2023-04-06T01:56:07;5.37;;;4.87;;
10565;SDS011;5331;48.148;16.326;2023-04-06T01:58:35;5.20;;;4.60;;
10565;SDS011;5331;48.148;16.326;2023-04-06T02:01:02;5.23;;;4.73;;
10565;SDS011;5331;48.148;16.326;2023-04-06T02:03:29;6.33;;;4.83;;
10565;SDS011;5331;48.148;16.326;2023-04-06T02:05:56;5.30;;;4.73;;
10565;SDS011;5331;48.148;16.326;2023-04-06T02:08:23;5.37;;;4.87;;
10565;SDS011;5331;48.148;16.326;2023-04-06T02:10:50;5.37;;;4.90;;
10565;SDS011;5331;48.148;16.326;2023-04-06T02:13:17;5.80;;;5.17;;
10565;SDS011;5331;48.148;16.326;2023-04-06T02:15:45;5.53;;;5.00;;
10565;SDS011;5331;48.148;16.326;2023-04-06T02:18:12;5.00;;;4.60;;
10565;SDS011;5331;48.148;16.326;2023-04-06T02:20:39;4.87;;;4.47;;
10565;SDS011;5331;48.148;16.326;2023-04-06T02:23:06;5.30;;;4.80;;
10565;SDS011;5331;48.148;16.326;2023-04-06T02:25:33;5.20;;;4.70;;
10565;SDS011;5331;48.148;16.326;2023-04-06T02:27:59;5.00;;;4.60;;
10565;SDS011;5331;48.148;16.326;2023-04-06T02:30:27;5.73;;;5.23;;
10565;SDS011;5331;48.148;16.326;2023-04-06T02:32:55;5.37;;;4.87;;
10565;SDS011;5331;48.148;16.326;2023-04-06T02:35:22;5.57;;;5.07;;
10565;SDS011;5331;48.148;16.326;2023-04-06T02:37:50;5.30;;;4.60;;
10565;SDS011;5331;48.148;16.326;2023-04-06T02:40:17;5.63;;;4.90;;
10565;SDS011;5331;48.148;16.326;2023-04-06T02:42:44;6.47;;;4.83;;
10565;SDS011;5331;48.148;16.326;2023-04-06T02:45:11;4.80;;;4.40;;
10565;SDS011;5331;48.148;16.326;2023-04-06T02:47:38;5.43;;;4.83;;
10565;SDS011;5331;48.148;16.326;2023-04-06T02:50:07;5.27;;;4.77;;
10565;SDS011;5331;48.148;16.326;2023-04-06T02:52:34;5.57;;;5.07;;
10565;SDS011;5331;48.148;16.326;2023-04-06T02:55:01;5.60;;;4.73;;
10565;SDS011;5331;48.148;16.326;2023-04-06T02:57:28;4.67;;;4.27;;
10565;SDS011;5331;48.148;16.326;2023-04-06T02:59:55;5.57;;;4.97;;
10565;SDS011;5331;48.148;16.326;2023-04-06T03:02:22;6.07;;;5.47;;
10565;SDS011;5331;48.148;16.326;2023-04-06T03:04:49;5.93;;;5.33;;
10565;SDS011;5331;48.148;16.326;2023-04-06T03:07:17;5.43;;;4.93;;
10565;SDS011;5331;48.148;16.326;2023-04-06T03:09:44;5.73;;;4.87;;
10565;SDS011;5331;48.148;16.326;2023-04-06T03:12:11;5.87;;;5.37;;
10565;SDS011;5331;48.148;16.326;2023-04-06T03:14:37;5.33;;;4.83;;
10565;SDS011;5331;48.148;16.326;2023-04-06T03:17:04;6.17;;;5.57;;
10565;SDS011;5331;48.148;16.326;2023-04-06T03:19:31;5.93;;;5.30;;
10565;SDS011;5331;48.148;16.326;2023-04-06T03:21:58;5.40;;;4.80;;
10565;SDS011;5331;48.148;16.326;2023-04-06T03:24:26;5.47;;;4.90;;
10565;SDS011;5331;48.148;16.326;2023-04-06T03:26:53;5.40;;;4.90;;
10565;SDS011;5331;48.148;16.326;2023-04-06T03:29:21;6.67;;;5.23;;
10565;SDS011;5331;48.148;16.326;2023-04-06T03:31:48;5.63;;;4.97;;
10565;SDS011;5331;48.148;16.326;2023-04-06T03:34:15;5.77;;;5.17;;
10565;SDS011;5331;48.148;16.326;2023-04-06T03:36:42;6.33;;;5.70;;
10565;SDS011;5331;48.148;16.326;2023-04-06T03:39:09;5.80;;;5.30;;
10565;SDS011;5331;48.148;16.326;2023-04-06T03:41:37;5.70;;;5.20;;
10565;SDS011;5331;48.148;16.326;2023-04-06T03:44:05;5.93;;;5.43;;
10565;SDS011;5331;48.148;16.326;2023-04-06T03:46:31;6.00;;;5.10;;
10565;SDS011;5331;48.148;16.326;2023-04-06T03:48:58;5.60;;;5.10;;
10565;SDS011;5331;48.148;16.326;2023-04-06T03:51:25;5.90;;;5.40;;
10565;SDS011;5331;48.148;16.326;2023-04-06T03:53:53;5.70;;;5.10;;
10565;SDS011;5331;48.148;16.326;2023-04-06T03:56:20;6.10;;;5.50;;
10565;SDS011;5331;48.148;16.326;2023-04-06T03:58:48;5.43;;;4.93;;
10565;SDS011;5331;48.148;16.326;2023-04-06T04:01:15;6.13;;;5.53;;
10565;SDS011;5331;48.148;16.326;2023-04-06T04:03:42;6.07;;;5.47;;
10565;SDS011;5331;48.148;16.326;2023-04-06T04:06:09;6.37;;;5.30;;
10565;SDS011;5331;48.148;16.326;2023-04-06T04:08:36;6.03;;;5.43;;
10565;SDS011;5331;48.148;16.326;2023-04-06T04:11:03;7.03;;;5.90;;
10565;SDS011;5331;48.148;16.326;2023-04-06T04:13:30;6.60;;;5.43;;
10565;SDS011;5331;48.148;16.326;2023-04-06T04:15:58;6.43;;;5.80;;
10565;SDS011;5331;48.148;16.326;2023-04-06T04:18:25;8.17;;;5.70;;
10565;SDS011;5331;48.148;16.326;2023-04-06T04:20:52;6.40;;;5.80;;
10565;SDS011;5331;48.148;16.326;2023-04-06T04:23:19;5.63;;;5.13;;
10565;SDS011;5331;48.148;16.326;2023-04-06T04:25:46;6.00;;;5.40;;
10565;SDS011;5331;48.148;16.326;2023-04-06T04:28:13;6.73;;;5.27;;
10565;SDS011;5331;48.148;16.326;2023-04-06T04:30:39;6.53;;;5.93;;
10565;SDS011;5331;48.148;16.326;2023-04-06T04:33:08;6.50;;;5.37;;
10565;SDS011;5331;48.148;16.326;2023-04-06T04:35:35;11.00;;;5.87;;
10565;SDS011;5331;48.148;16.326;2023-04-06T04:38:02;7.00;;;5.73;;
10565;SDS011;5331;48.148;16.326;2023-04-06T04:40:29;6.40;;;5.70;;
10565;SDS011;5331;48.148;16.326;2023-04-06T04:42:55;6.20;;;5.60;;
10565;SDS011;5331;48.148;16.326;2023-04-06T04:45:22;10.43;;;5.80;;
10565;SDS011;5331;48.148;16.326;2023-04-06T04:47:49;7.93;;;6.23;;
10565;SDS011;5331;48.148;16.326;2023-04-06T04:50:18;6.63;;;6.03;;
10565;SDS011;5331;48.148;16.326;2023-04-06T04:52:45;6.73;;;6.00;;
10565;SDS011;5331;48.148;16.326;2023-04-06T04:55:11;7.40;;;6.17;;
10565;SDS011;5331;48.148;16.326;2023-04-06T04:57:38;7.87;;;5.83;;
10565;SDS011;5331;48.148;16.326;2023-04-06T05:00:06;7.40;;;6.17;;
10565;SDS011;5331;48.148;16.326;2023-04-06T05:02:33;6.80;;;6.10;;
10565;SDS011;5331;48.148;16.326;2023-04-06T05:05:00;8.73;;;5.90;;
10565;SDS011;5331;48.148;16.326;2023-04-06T05:07:28;7.20;;;6.33;;
10565;SDS011;5331;48.148;16.326;2023-04-06T05:09:55;6.97;;;6.30;;
10565;SDS011;5331;48.148;16.326;2023-04-06T05:12:22;8.27;;;5.77;;
10565;SDS011;5331;48.148;16.326;2023-04-06T05:14:50;6.90;;;6.27;;
10565;SDS011;5331;48.148;16.326;2023-04-06T05:17:16;6.43;;;5.83;;
10565;SDS011;5331;48.148;16.326;2023-04-06T05:19:43;7.87;;;6.33;;
10565;SDS011;5331;48.148;16.326;2023-04-06T05:22:10;6.57;;;5.73;;
10565;SDS011;5331;48.148;16.326;2023-04-06T05:24:40;7.67;;;6.03;;
10565;SDS011;5331;48.148;16.326;2023-04-06T05:27:07;8.80;;;6.30;;
10565;SDS011;5331;48.148;16.326;2023-04-06T05:29:34;6.40;;;5.80;;
10565;SDS011;5331;48.148;16.326;2023-04-06T05:32:01;7.93;;;5.97;;
10565;SDS011;5331;48.148;16.326;2023-04-06T05:34:28;6.30;;;5.70;;
10565;SDS011;5331;48.148;16.326;2023-04-06T05:36:55;6.00;;;5.47;;
10565;SDS011;5331;48.148;16.326;2023-04-06T05:39:22;8.40;;;5.73;;
10565;SDS011;5331;48.148;16.326;2023-04-06T05:41:50;6.30;;;5.70;;
10565;SDS011;5331;48.148;16.326;2023-04-06T05:44:17;7.13;;;5.60;;
10565;SDS011;5331;48.148;16.326;2023-04-06T05:46:44;6.17;;;5.57;;
10565;SDS011;5331;48.148;16.326;2023-04-06T05:49:11;6.27;;;5.60;;
10565;SDS011;5331;48.148;16.326;2023-04-06T05:51:38;6.33;;;5.73;;
10565;SDS011;5331;48.148;16.326;2023-04-06T05:54:05;6.97;;;5.77;;
10565;SDS011;5331;48.148;16.326;2023-04-06T05:56:32;8.20;;;5.73;;
10565;SDS011;5331;48.148;16.326;2023-04-06T05:59:00;7.10;;;5.10;;
10565;SDS011;5331;48.148;16.326;2023-04-06T06:01:27;5.40;;;4.90;;
10565;SDS011;5331;48.148;16.326;2023-04-06T06:03:54;6.73;;;4.87;;
10565;SDS011;5331;48.148;16.326;2023-04-06T06:06:21;6.40;;;5.30;;
10565;SDS011;5331;48.148;16.326;2023-04-06T06:08:48;5.90;;;5.30;;
10565;SDS011;5331;48.148;16.326;2023-04-06T06:11:15;5.80;;;5.03;;
10565;SDS011;5331;48.148;16.326;2023-04-06T06:13:42;6.93;;;5.17;;
10565;SDS011;5331;48.148;16.326;2023-04-06T06:16:10;5.17;;;4.63;;
10565;SDS011;5331;48.148;16.326;2023-04-06T06:18:37;5.60;;;5.00;;
10565;SDS011;5331;48.148;16.326;2023-04-06T06:21:04;6.03;;;5.07;;
10565;SDS011;5331;48.148;16.326;2023-04-06T06:23:31;5.60;;;5.10;;
10565;SDS011;5331;48.148;16.326;2023-04-06T06:25:58;6.63;;;4.93;;
10565;SDS011;5331;48.148;16.326;2023-04-06T06:28:26;6.87;;;5.17;;
10565;SDS011;5331;48.148;16.326;2023-04-06T06:30:52;5.60;;;5.10;;
10565;SDS011;5331;48.148;16.326;2023-04-06T06:33:21;6.77;;;5.47;;
10565;SDS011;5331;48.148;16.326;2023-04-06T06:35:48;6.30;;;5.17;;
10565;SDS011;5331;48.148;16.326;2023-04-06T06:38:16;5.67;;;5.17;;
10565;SDS011;5331;48.148;16.326;2023-04-06T06:40:43;7.30;;;5.17;;
10565;SDS011;5331;48.148;16.326;2023-04-06T06:43:11;5.60;;;5.10;;
10565;SDS011;5331;48.148;16.326;2023-04-06T06:45:38;6.57;;;5.20;;
10565;SDS011;5331;48.148;16.326;2023-04-06T06:48:05;6.77;;;5.30;;
10565;SDS011;5331;48.148;16.326;2023-04-06T06:50:33;6.83;;;5.37;;
10565;SDS011;5331;48.148;16.326;2023-04-06T06:53:00;5.83;;;5.23;;
10565;SDS011;5331;48.148;16.326;2023-04-06T06:55:27;6.33;;;5.37;;
10565;SDS011;5331;48.148;16.326;2023-04-06T06:57:54;7.03;;;5.90;;
10565;SDS011;5331;48.148;16.326;2023-04-06T07:00:21;7.90;;;5.73;;
10565;SDS011;5331;48.148;16.326;2023-04-06T07:02:48;6.90;;;5.57;;
10565;SDS011;5331;48.148;16.326;2023-04-06T07:05:15;6.30;;;5.40;;
10565;SDS011;5331;48.148;16.326;2023-04-06T07:07:44;6.80;;;5.83;;
10565;SDS011;5331;48.148;16.326;2023-04-06T07:10:11;7.03;;;5.97;;
10565;SDS011;5331;48.148;16.326;2023-04-06T07:12:38;7.80;;;5.60;;
10565;SDS011;5331;48.148;16.326;2023-04-06T07:15:05;7.57;;;6.00;;
10565;SDS011;5331;48.148;16.326;2023-04-06T07:17:33;7.67;;;5.80;;
10565;SDS011;5331;48.148;16.326;2023-04-06T07:20:00;7.93;;;5.93;;
10565;SDS011;5331;48.148;16.326;2023-04-06T07:22:27;8.00;;;5.90;;
10565;SDS011;5331;48.148;16.326;2023-04-06T07:24:55;7.00;;;5.40;;
10565;SDS011;5331;48.148;16.326;2023-04-06T07:27:22;7.32;;;5.72;;
10565;SDS011;5331;48.148;16.326;2023-04-06T07:29:49;9.32;;;5.97;;
10565;SDS011;5331;48.148;16.326;2023-04-06T07:32:16;6.15;;;5.55;;
10565;SDS011;5331;48.148;16.326;2023-04-06T07:34:43;6.13;;;5.47;;
10565;SDS011;5331;48.148;16.326;2023-04-06T07:37:11;7.53;;;5.73;;
10565;SDS011;5331;48.148;16.326;2023-04-06T07:39:39;7.38;;;5.65;;
10565;SDS011;5331;48.148;16.326;2023-04-06T07:42:07;9.38;;;6.65;;
10565;SDS011;5331;48.148;16.326;2023-04-06T07:44:35;6.38;;;5.78;;
10565;SDS011;5331;48.148;16.326;2023-04-06T07:47:02;6.30;;;5.45;;
10565;SDS011;5331;48.148;16.326;2023-04-06T07:49:29;7.55;;;5.50;;
10565;SDS011;5331;48.148;16.326;2023-04-06T07:51:57;8.02;;;5.15;;
10565;SDS011;5331;48.148;16.326;2023-04-06T07:54:24;7.18;;;5.45;;
10565;SDS011;5331;48.148;16.326;2023-04-06T07:56:51;7.68;;;5.82;;
10565;SDS011;5331;48.148;16.326;2023-04-06T07:59:19;7.47;;;5.32;;
10565;SDS011;5331;48.148;16.326;2023-04-06T08:01:46;5.80;;;4.90;;
10565;SDS011;5331;48.148;16.326;2023-04-06T08:04:13;7.55;;;5.07;;
10565;SDS011;5331;48.148;16.326;2023-04-06T08:06:40;6.43;;;5.18;;
10565;SDS011;5331;48.148;16.326;2023-04-06T08:09:07;6.50;;;5.00;;
10565;SDS011;5331;48.148;16.326;2023-04-06T08:11:34;6.43;;;4.50;;
10565;SDS011;5331;48.148;16.326;2023-04-06T08:26:28;5.90;;;4.57;;
10565;SDS011;5331;48.148;16.326;2023-04-06T08:28:56;4.35;;;3.95;;
10565;SDS011;5331;48.148;16.326;2023-04-06T08:31:23;4.43;;;3.97;;
10565;SDS011;5331;48.148;16.326;2023-04-06T08:33:51;5.30;;;4.22;;
10565;SDS011;5331;48.148;16.326;2023-04-06T08:36:18;4.43;;;4.03;;
10565;SDS011;5331;48.148;16.326;2023-04-06T08:38:47;4.40;;;4.00;;
10565;SDS011;5331;48.148;16.326;2023-04-06T08:41:15;4.53;;;3.95;;
10565;SDS011;5331;48.148;16.326;2023-04-06T08:43:46;4.50;;;4.10;;
10565;SDS011;5331;48.148;16.326;2023-04-06T08:46:14;3.92;;;3.63;;
10565;SDS011;5331;48.148;16.326;2023-04-06T08:48:41;4.47;;;3.92;;
10565;SDS011;5331;48.148;16.326;2023-04-06T08:51:09;4.30;;;4.00;;
10565;SDS011;5331;48.148;16.326;2023-04-06T08:53:36;6.03;;;4.10;;
10565;SDS011;5331;48.148;16.326;2023-04-06T08:56:04;4.90;;;4.38;;
10565;SDS011;5331;48.148;16.326;2023-04-06T08:58:32;4.80;;;4.40;;
10565;SDS011;5331;48.148;16.326;2023-04-06T09:01:05;5.00;;;4.45;;
10565;SDS011;5331;48.148;16.326;2023-04-06T09:03:35;5.13;;;4.63;;
10565;SDS011;5331;48.148;16.326;2023-04-06T09:06:04;5.32;;;4.60;;
10565;SDS011;5331;48.148;16.326;2023-04-06T09:08:32;5.00;;;4.60;;
10565;SDS011;5331;48.148;16.326;2023-04-06T09:10:59;4.75;;;4.35;;
10565;SDS011;5331;48.148;16.326;2023-04-06T09:13:27;4.90;;;4.43;;
10565;SDS011;5331;48.148;16.326;2023-04-06T09:16:00;5.38;;;4.60;;
10565;SDS011;5331;48.148;16.326;2023-04-06T09:18:31;6.15;;;4.47;;
10565;SDS011;5331;48.148;16.326;2023-04-06T09:21:00;5.10;;;4.45;;
10565;SDS011;5331;48.148;16.326;2023-04-06T09:23:27;9.43;;;5.00;;
10565;SDS011;5331;48.148;16.326;2023-04-06T09:26:04;4.82;;;4.43;;
10565;SDS011;5331;48.148;16.326;2023-04-06T09:28:45;4.57;;;4.13;;
10565;SDS011;5331;48.148;16.326;2023-04-06T09:31:15;4.13;;;3.83;;
10565;SDS011;5331;48.148;16.326;2023-04-06T09:33:47;4.50;;;4.10;;
10565;SDS011;5331;48.148;16.326;2023-04-06T09:36:14;5.22;;;4.30;;
10565;SDS011;5331;48.148;16.326;2023-04-06T09:38:51;4.45;;;4.03;;
10565;SDS011;5331;48.148;16.326;2023-04-06T09:41:21;4.22;;;3.83;;
10565;SDS011;5331;48.148;16.326;2023-04-06T09:43:49;4.00;;;3.63;;
10565;SDS011;5331;48.148;16.326;2023-04-06T09:46:19;4.30;;;3.55;;
10565;SDS011;5331;48.148;16.326;2023-04-06T09:48:48;4.22;;;3.85;;
10565;SDS011;5331;48.148;16.326;2023-04-06T09:51:17;4.50;;;4.10;;
10565;SDS011;5331;48.148;16.326;2023-04-06T09:53:45;5.00;;;4.38;;
10565;SDS011;5331;48.148;16.326;2023-04-06T09:56:18;4.50;;;4.07;;
10565;SDS011;5331;48.148;16.326;2023-04-06T09:58:51;4.70;;;3.53;;
10565;SDS011;5331;48.148;16.326;2023-04-06T10:01:26;3.50;;;3.10;;
10565;SDS011;5331;48.148;16.326;2023-04-06T10:03:56;3.10;;;2.90;;
10565;SDS011;5331;48.148;16.326;2023-04-06T10:06:34;3.33;;;3.00;;
10565;SDS011;5331;48.148;16.326;2023-04-06T10:09:02;2.85;;;2.65;;
10565;SDS011;5331;48.148;16.326;2023-04-06T10:11:33;3.08;;;2.80;;
10565;SDS011;5331;48.148;16.326;2023-04-06T10:14:00;3.42;;;3.22;;
10565;SDS011;5331;48.148;16.326;2023-04-06T10:16:29;4.40;;;2.75;;
10565;SDS011;5331;48.148;16.326;2023-04-06T10:18:57;3.85;;;2.90;;
10565;SDS011;5331;48.148;16.326;2023-04-06T10:21:35;3.35;;;2.85;;
10565;SDS011;5331;48.148;16.326;2023-04-06T10:24:06;2.70;;;2.50;;
10565;SDS011;5331;48.148;16.326;2023-04-06T10:26:37;3.15;;;2.90;;
10565;SDS011;5331;48.148;16.326;2023-04-06T10:29:05;2.88;;;2.60;;
10565;SDS011;5331;48.148;16.326;2023-04-06T10:31:38;5.63;;;2.95;;
10565;SDS011;5331;48.148;16.326;2023-04-06T10:34:08;3.20;;;2.90;;
10565;SDS011;5331;48.148;16.326;2023-04-06T10:36:35;3.70;;;3.00;;
10565;SDS011;5331;48.148;16.326;2023-04-06T10:39:03;3.75;;;3.30;;
10565;SDS011;5331;48.148;16.326;2023-04-06T10:41:32;3.20;;;3.00;;
10565;SDS011;5331;48.148;16.326;2023-04-06T10:44:00;4.40;;;2.97;;
10565;SDS011;5331;48.148;16.326;2023-04-06T10:46:28;3.50;;;2.97;;
10565;SDS011;5331;48.148;16.326;2023-04-06T10:48:57;3.38;;;3.08;;
10565;SDS011;5331;48.148;16.326;2023-04-06T10:51:25;4.13;;;3.50;;
10565;SDS011;5331;48.148;16.326;2023-04-06T10:53:54;3.50;;;3.20;;
10565;SDS011;5331;48.148;16.326;2023-04-06T10:56:22;6.47;;;3.42;;
10565;SDS011;5331;48.148;16.326;2023-04-06T10:58:54;3.22;;;3.03;;
10565;SDS011;5331;48.148;16.326;2023-04-06T11:01:22;3.80;;;3.17;;
10565;SDS011;5331;48.148;16.326;2023-04-06T11:03:51;6.90;;;3.55;;
10565;SDS011;5331;48.148;16.326;2023-04-06T11:06:21;4.65;;;3.38;;
10565;SDS011;5331;48.148;16.326;2023-04-06T11:08:49;4.18;;;3.78;;
10565;SDS011;5331;48.148;16.326;2023-04-06T11:11:17;4.13;;;3.72;;
10565;SDS011;5331;48.148;16.326;2023-04-06T11:13:46;4.32;;;3.47;;
10565;SDS011;5331;48.148;16.326;2023-04-06T11:16:14;4.78;;;3.60;;
10565;SDS011;5331;48.148;16.326;2023-04-06T11:18:52;3.53;;;3.22;;
10565;SDS011;5331;48.148;16.326;2023-04-06T11:21:32;3.80;;;3.15;;
10565;SDS011;5331;48.148;16.326;2023-04-06T11:24:04;3.65;;;3.28;;
10565;SDS011;5331;48.148;16.326;2023-04-06T11:26:38;3.35;;;3.05;;
10565;SDS011;5331;48.148;16.326;2023-04-06T11:29:07;3.75;;;3.47;;
10565;SDS011;5331;48.148;16.326;2023-04-06T11:31:37;3.72;;;3.42;;
10565;SDS011;5331;48.148;16.326;2023-04-06T11:34:09;3.40;;;3.10;;
10565;SDS011;5331;48.148;16.326;2023-04-06T11:36:41;3.35;;;3.15;;
10565;SDS011;5331;48.148;16.326;2023-04-06T11:39:09;3.70;;;3.33;;
10565;SDS011;5331;48.148;16.326;2023-04-06T11:41:36;4.35;;;3.20;;
10565;SDS011;5331;48.148;16.326;2023-04-06T11:44:03;3.38;;;3.08;;
10565;SDS011;5331;48.148;16.326;2023-04-06T11:46:32;3.15;;;2.70;;
10565;SDS011;5331;48.148;16.326;2023-04-06T11:48:59;2.97;;;2.78;;
10565;SDS011;5331;48.148;16.326;2023-04-06T11:51:27;3.40;;;3.10;;
10565;SDS011;5331;48.148;16.326;2023-04-06T11:53:55;3.35;;;3.03;;
10565;SDS011;5331;48.148;16.326;2023-04-06T11:56:23;3.30;;;3.00;;
10565;SDS011;5331;48.148;16.326;2023-04-06T11:58:54;3.22;;;2.95;;
10565;SDS011;5331;48.148;16.326;2023-04-06T12:01:22;3.28;;;3.00;;
10565;SDS011;5331;48.148;16.326;2023-04-06T12:03:50;5.60;;;3.30;;
10565;SDS011;5331;48.148;16.326;2023-04-06T12:06:17;3.40;;;3.08;;
10565;SDS011;5331;48.148;16.326;2023-04-06T12:08:44;5.40;;;3.22;;
10565;SDS011;5331;48.148;16.326;2023-04-06T12:11:13;3.97;;;3.53;;
10565;SDS011;5331;48.148;16.326;2023-04-06T12:13:40;3.40;;;3.10;;
10565;SDS011;5331;48.148;16.326;2023-04-06T12:16:07;4.45;;;3.35;;
10565;SDS011;5331;48.148;16.326;2023-04-06T12:18:34;3.58;;;3.20;;
10565;SDS011;5331;48.148;16.326;2023-04-06T12:21:01;3.92;;;3.63;;
10565;SDS011;5331;48.148;16.326;2023-04-06T12:23:30;3.70;;;3.40;;
10565;SDS011;5331;48.148;16.326;2023-04-06T12:25:57;3.55;;;3.25;;
10565;SDS011;5331;48.148;16.326;2023-04-06T12:28:25;3.45;;;3.15;;
10565;SDS011;5331;48.148;16.326;2023-04-06T12:30:53;4.80;;;3.42;;
10565;SDS011;5331;48.148;16.326;2023-04-06T12:33:20;3.40;;;3.10;;
10565;SDS011;5331;48.148;16.326;2023-04-06T12:35:47;3.53;;;3.22;;
10565;SDS011;5331;48.148;16.326;2023-04-06T12:38:15;3.70;;;3.40;;
10565;SDS011;5331;48.148;16.326;2023-04-06T12:40:42;4.00;;;3.70;;
10565;SDS011;5331;48.148;16.326;2023-04-06T12:43:09;3.95;;;3.65;;
10565;SDS011;5331;48.148;16.326;2023-04-06T12:45:37;3.80;;;3.05;;
10565;SDS011;5331;48.148;16.326;2023-04-06T12:48:04;3.50;;;3.20;;
10565;SDS011;5331;48.148;16.326;2023-04-06T12:50:32;3.70;;;3.40;;
10565;SDS011;5331;48.148;16.326;2023-04-06T12:52:59;4.47;;;3.00;;
10565;SDS011;5331;48.148;16.326;2023-04-06T12:55:27;3.58;;;3.28;;
10565;SDS011;5331;48.148;16.326;2023-04-06T12:57:56;3.08;;;2.88;;
10565;SDS011;5331;48.148;16.326;2023-04-06T13:00:23;3.40;;;3.17;;
10565;SDS011;5331;48.148;16.326;2023-04-06T13:02:51;2.97;;;2.78;;
10565;SDS011;5331;48.148;16.326;2023-04-06T13:05:18;3.50;;;3.20;;
10565;SDS011;5331;48.148;16.326;2023-04-06T13:07:45;4.20;;;3.13;;
10565;SDS011;5331;48.148;16.326;2023-04-06T13:10:12;3.67;;;3.38;;
10565;SDS011;5331;48.148;16.326;2023-04-06T13:12:39;3.30;;;3.10;;
10565;SDS011;5331;48.148;16.326;2023-04-06T13:15:06;3.40;;;3.10;;
10565;SDS011;5331;48.148;16.326;2023-04-06T13:17:34;3.22;;;3.00;;
10565;SDS011;5331;48.148;16.326;2023-04-06T13:20:03;2.83;;;2.63;;
10565;SDS011;5331;48.148;16.326;2023-04-06T13:22:31;3.03;;;2.72;;
10565;SDS011;5331;48.148;16.326;2023-04-06T13:24:58;3.03;;;2.65;;
10565;SDS011;5331;48.148;16.326;2023-04-06T13:27:25;3.55;;;3.25;;
10565;SDS011;5331;48.148;16.326;2023-04-06T13:29:52;3.60;;;3.30;;
10565;SDS011;5331;48.148;16.326;2023-04-06T13:32:20;3.97;;;3.55;;
10565;SDS011;5331;48.148;16.326;2023-04-06T13:34:47;3.20;;;3.00;;
10565;SDS011;5331;48.148;16.326;2023-04-06T13:37:15;3.42;;;3.13;;
10565;SDS011;5331;48.148;16.326;2023-04-06T13:39:42;2.72;;;2.63;;
10565;SDS011;5331;48.148;16.326;2023-04-06T13:42:09;3.40;;;3.10;;
10565;SDS011;5331;48.148;16.326;2023-04-06T13:44:36;3.05;;;2.85;;
10565;SDS011;5331;48.148;16.326;2023-04-06T13:47:03;4.22;;;3.28;;
10565;SDS011;5331;48.148;16.326;2023-04-06T13:49:30;3.70;;;3.40;;
10565;SDS011;5331;48.148;16.326;2023-04-06T13:51:57;3.40;;;3.20;;
10565;SDS011;5331;48.148;16.326;2023-04-06T13:54:29;5.40;;;3.30;;
10565;SDS011;5331;48.148;16.326;2023-04-06T13:56:56;3.70;;;3.40;;
10565;SDS011;5331;48.148;16.326;2023-04-06T13:59:23;4.63;;;3.30;;
10565;SDS011;5331;48.148;16.326;2023-04-06T14:01:50;5.50;;;3.55;;
10565;SDS011;5331;48.148;16.326;2023-04-06T14:04:17;4.70;;;3.13;;
10565;SDS011;5331;48.148;16.326;2023-04-06T14:06:44;5.85;;;3.20;;
10565;SDS011;5331;48.148;16.326;2023-04-06T14:09:12;5.05;;;3.30;;
10565;SDS011;5331;48.148;16.326;2023-04-06T14:11:40;3.63;;;3.30;;
10565;SDS011;5331;48.148;16.326;2023-04-06T14:14:07;3.63;;;3.25;;
10565;SDS011;5331;48.148;16.326;2023-04-06T14:16:34;4.07;;;3.60;;
10565;SDS011;5331;48.148;16.326;2023-04-06T14:19:01;4.10;;;3.70;;
10565;SDS011;5331;48.148;16.326;2023-04-06T14:21:28;3.78;;;3.25;;
10565;SDS011;5331;48.148;16.326;2023-04-06T14:23:56;3.55;;;3.25;;
10565;SDS011;5331;48.148;16.326;2023-04-06T14:26:23;3.38;;;3.10;;
10565;SDS011;5331;48.148;16.326;2023-04-06T14:28:51;3.53;;;3.28;;
10565;SDS011;5331;48.148;16.326;2023-04-06T14:31:18;4.47;;;3.22;;
10565;SDS011;5331;48.148;16.326;2023-04-06T14:33:45;3.35;;;3.15;;
10565;SDS011;5331;48.148;16.326;2023-04-06T14:36:12;3.90;;;3.60;;
10565;SDS011;5331;48.148;16.326;2023-04-06T14:38:39;3.60;;;3.30;;
10565;SDS011;5331;48.148;16.326;2023-04-06T14:41:08;4.07;;;3.30;;
10565;SDS011;5331;48.148;16.326;2023-04-06T14:43:35;4.22;;;3.60;;
10565;SDS011;5331;48.148;16.326;2023-04-06T14:46:04;3.60;;;3.30;;
10565;SDS011;5331;48.148;16.326;2023-04-06T14:48:33;3.50;;;3.20;;
10565;SDS011;5331;48.148;16.326;2023-04-06T14:51:00;4.15;;;3.47;;
10565;SDS011;5331;48.148;16.326;2023-04-06T14:53:28;3.88;;;3.58;;
10565;SDS011;5331;48.148;16.326;2023-04-06T14:55:56;4.03;;;3.70;;
10565;SDS011;5331;48.148;16.326;2023-04-06T14:58:25;3.67;;;3.38;;
10565;SDS011;5331;48.148;16.326;2023-04-06T15:00:54;4.03;;;3.63;;
10565;SDS011;5331;48.148;16.326;2023-04-06T15:03:23;4.63;;;3.22;;